sensor_id;sensor_type;location;lat;lon;timestamp;temperature;humidity
76567;DHT22;65428;53.194;6.132;2023-03-23T00:01:54;10.30;99.90
76567;DHT22;65428;53.194;6.132;2023-03-23T00:04:20;10.30;99.90
76567;DHT22;65428;53.194;6.132;2023-03-23T00:06:46;10.50;99.90
76567;DHT22;65428;53.194;6.132;2023-03-23T00:09:13;10.50;99.90
76567;DHT22;65428;53.194;6.132;2023-03-23T00:11:41;10.40;99.90
76567;DHT22;65428;53.194;6.132;2023-03-23T00:14:09;10.50;99.90
76567;DHT22;65428;53.194;6.132;2023-03-23T00:16:39;10.40;99.90
76567;DHT22;65428;53.194;6.132;2023-03-23T00:19:11;10.40;99.90
76567;DHT22;65428;53.194;6.132;2023-03-23T00:21:41;10.40;99.90
76567;DHT22;65428;53.194;6.132;2023-03-23T00:24:16;10.50;99.90
76567;DHT22;65428;53.194;6.132;2023-03-23T00:26:45;10.50;99.90
76567;DHT22;65428;53.194;6.132;2023-03-23T00:29:15;11.00;99.90
76567;DHT22;65428;53.194;6.132;2023-03-23T00:31:42;10.80;99.90
76567;DHT22;65428;53.194;6.132;2023-03-23T00:34:16;10.70;99.90
76567;DHT22;65428;53.194;6.132;2023-03-23T00:36:48;10.70;99.90
76567;DHT22;65428;53.194;6.132;2023-03-23T00:39:14;10.70;99.90
76567;DHT22;65428;53.194;6.132;2023-03-23T00:41:42;10.70;99.90
76567;DHT22;65428;53.194;6.132;2023-03-23T00:44:08;10.60;99.90
76567;DHT22;65428;53.194;6.132;2023-03-23T00:46:34;10.80;99.90
76567;DHT22;65428;53.194;6.132;2023-03-23T00:49:12;10.50;99.90
76567;DHT22;65428;53.194;6.132;2023-03-23T00:51:40;10.60;99.90
76567;DHT22;65428;53.194;6.132;2023-03-23T00:54:06;11.10;99.90
76567;DHT22;65428;53.194;6.132;2023-03-23T00:56:31;10.70;99.90
76567;DHT22;65428;53.194;6.132;2023-03-23T00:58:57;10.60;99.90
76567;DHT22;65428;53.194;6.132;2023-03-23T01:01:23;10.60;99.90
76567;DHT22;65428;53.194;6.132;2023-03-23T01:03:48;10.60;99.90
76567;DHT22;65428;53.194;6.132;2023-03-23T01:06:15;10.50;99.90
76567;DHT22;65428;53.194;6.132;2023-03-23T01:08:41;10.30;99.90
76567;DHT22;65428;53.194;6.132;2023-03-23T01:11:13;10.40;99.90
76567;DHT22;65428;53.194;6.132;2023-03-23T01:13:39;10.30;99.90
76567;DHT22;65428;53.194;6.132;2023-03-23T01:16:06;10.10;99.90
76567;DHT22;65428;53.194;6.132;2023-03-23T01:18:32;10.40;99.90
76567;DHT22;65428;53.194;6.132;2023-03-23T01:20:57;10.50;99.90
76567;DHT22;65428;53.194;6.132;2023-03-23T01:23:23;10.50;99.90
76567;DHT22;65428;53.194;6.132;2023-03-23T01:25:49;10.50;99.90
76567;DHT22;65428;53.194;6.132;2023-03-23T01:28:15;10.40;99.90
76567;DHT22;65428;53.194;6.132;2023-03-23T01:30:41;10.60;99.90
76567;DHT22;65428;53.194;6.132;2023-03-23T01:33:07;10.40;99.90
76567;DHT22;65428;53.194;6.132;2023-03-23T01:35:32;10.40;99.90
76567;DHT22;65428;53.194;6.132;2023-03-23T01:37:58;10.60;99.90
76567;DHT22;65428;53.194;6.132;2023-03-23T01:40:26;10.20;99.90
76567;DHT22;65428;53.194;6.132;2023-03-23T01:42:53;10.70;99.90
76567;DHT22;65428;53.194;6.132;2023-03-23T01:45:37;10.50;99.90
76567;DHT22;65428;53.194;6.132;2023-03-23T01:48:13;10.50;99.90
76567;DHT22;65428;53.194;6.132;2023-03-23T01:51:04;10.60;99.90
76567;DHT22;65428;53.194;6.132;2023-03-23T01:53:37;10.60;99.90
76567;DHT22;65428;53.194;6.132;2023-03-23T01:56:04;11.00;99.90
76567;DHT22;65428;53.194;6.132;2023-03-23T01:58:40;10.70;99.90
76567;DHT22;65428;53.194;6.132;2023-03-23T02:01:10;10.80;99.90
76567;DHT22;65428;53.194;6.132;2023-03-23T02:03:39;10.70;99.90
76567;DHT22;65428;53.194;6.132;2023-03-23T02:06:07;10.80;99.90
76567;DHT22;65428;53.194;6.132;2023-03-23T02:08:34;10.80;99.90
76567;DHT22;65428;53.194;6.132;2023-03-23T02:11:01;10.90;99.90
76567;DHT22;65428;53.194;6.132;2023-03-23T02:13:28;11.00;99.90
76567;DHT22;65428;53.194;6.132;2023-03-23T02:21:34;11.30;99.90
76567;DHT22;65428;53.194;6.132;2023-03-23T02:26:57;11.00;99.90
76567;DHT22;65428;53.194;6.132;2023-03-23T02:29:30;11.00;99.90
76567;DHT22;65428;53.194;6.132;2023-03-23T02:34:54;11.00;99.90
76567;DHT22;65428;53.194;6.132;2023-03-23T02:37:28;11.10;99.90
76567;DHT22;65428;53.194;6.132;2023-03-23T02:40:20;11.10;99.90
76567;DHT22;65428;53.194;6.132;2023-03-23T02:42:49;11.00;99.90
76567;DHT22;65428;53.194;6.132;2023-03-23T02:45:16;11.10;99.90
76567;DHT22;65428;53.194;6.132;2023-03-23T02:47:43;11.10;99.90
76567;DHT22;65428;53.194;6.132;2023-03-23T02:50:14;11.20;99.90
76567;DHT22;65428;53.194;6.132;2023-03-23T02:52:43;11.10;99.90
76567;DHT22;65428;53.194;6.132;2023-03-23T02:55:11;11.40;99.90
76567;DHT22;65428;53.194;6.132;2023-03-23T02:57:37;11.10;99.90
76567;DHT22;65428;53.194;6.132;2023-03-23T03:00:05;11.10;99.90
76567;DHT22;65428;53.194;6.132;2023-03-23T03:02:37;11.10;99.90
76567;DHT22;65428;53.194;6.132;2023-03-23T03:05:18;11.30;99.90
76567;DHT22;65428;53.194;6.132;2023-03-23T03:10:57;11.20;99.90
76567;DHT22;65428;53.194;6.132;2023-03-23T03:13:35;11.20;99.90
76567;DHT22;65428;53.194;6.132;2023-03-23T03:19:10;11.10;99.90
76567;DHT22;65428;53.194;6.132;2023-03-23T03:21:42;11.10;99.90
76567;DHT22;65428;53.194;6.132;2023-03-23T03:24:10;11.20;99.90
76567;DHT22;65428;53.194;6.132;2023-03-23T03:26:39;11.10;99.90
76567;DHT22;65428;53.194;6.132;2023-03-23T03:29:07;11.30;99.90
76567;DHT22;65428;53.194;6.132;2023-03-23T03:31:36;11.20;99.90
76567;DHT22;65428;53.194;6.132;2023-03-23T03:34:04;11.30;99.90
76567;DHT22;65428;53.194;6.132;2023-03-23T03:36:33;11.10;99.90
76567;DHT22;65428;53.194;6.132;2023-03-23T03:39:07;11.00;99.90
76567;DHT22;65428;53.194;6.132;2023-03-23T03:41:37;10.90;99.90
76567;DHT22;65428;53.194;6.132;2023-03-23T03:44:04;11.40;99.90
76567;DHT22;65428;53.194;6.132;2023-03-23T03:46:31;10.90;99.90
76567;DHT22;65428;53.194;6.132;2023-03-23T03:48:57;10.90;99.90
76567;DHT22;65428;53.194;6.132;2023-03-23T03:51:25;10.70;99.90
76567;DHT22;65428;53.194;6.132;2023-03-23T03:53:51;10.70;99.90
76567;DHT22;65428;53.194;6.132;2023-03-23T03:56:17;10.70;99.90
76567;DHT22;65428;53.194;6.132;2023-03-23T03:58:43;10.70;99.90
76567;DHT22;65428;53.194;6.132;2023-03-23T04:01:09;10.60;99.90
76567;DHT22;65428;53.194;6.132;2023-03-23T04:03:36;10.60;99.90
76567;DHT22;65428;53.194;6.132;2023-03-23T04:06:02;10.80;99.90
76567;DHT22;65428;53.194;6.132;2023-03-23T04:08:29;10.60;99.90
76567;DHT22;65428;53.194;6.132;2023-03-23T04:10:55;10.60;99.90
76567;DHT22;65428;53.194;6.132;2023-03-23T04:13:21;10.80;99.90
76567;DHT22;65428;53.194;6.132;2023-03-23T04:15:47;10.60;99.90
76567;DHT22;65428;53.194;6.132;2023-03-23T04:18:15;10.60;99.90
76567;DHT22;65428;53.194;6.132;2023-03-23T04:20:46;10.30;99.90
76567;DHT22;65428;53.194;6.132;2023-03-23T04:23:15;10.70;99.90
76567;DHT22;65428;53.194;6.132;2023-03-23T04:25:46;10.70;99.90
76567;DHT22;65428;53.194;6.132;2023-03-23T04:28:12;10.40;99.90
76567;DHT22;65428;53.194;6.132;2023-03-23T04:30:38;10.30;99.90
76567;DHT22;65428;53.194;6.132;2023-03-23T04:33:09;10.40;99.90
76567;DHT22;65428;53.194;6.132;2023-03-23T04:35:42;10.40;99.90
76567;DHT22;65428;53.194;6.132;2023-03-23T04:38:11;10.40;99.90
76567;DHT22;65428;53.194;6.132;2023-03-23T04:40:39;10.30;99.90
76567;DHT22;65428;53.194;6.132;2023-03-23T04:43:06;10.20;99.90
76567;DHT22;65428;53.194;6.132;2023-03-23T04:45:33;10.20;99.90
76567;DHT22;65428;53.194;6.132;2023-03-23T04:59:33;10.30;99.90
76567;DHT22;65428;53.194;6.132;2023-03-23T05:02:07;9.80;99.90
76567;DHT22;65428;53.194;6.132;2023-03-23T05:05:26;10.30;99.90
76567;DHT22;65428;53.194;6.132;2023-03-23T05:08:20;10.30;99.90
76567;DHT22;65428;53.194;6.132;2023-03-23T05:35:50;10.30;99.90
76567;DHT22;65428;53.194;6.132;2023-03-23T05:49:07;10.10;99.90
76567;DHT22;65428;53.194;6.132;2023-03-23T05:57:59;10.20;99.90
76567;DHT22;65428;53.194;6.132;2023-03-23T06:00:56;10.60;99.90
76567;DHT22;65428;53.194;6.132;2023-03-23T06:10:16;10.40;99.90
76567;DHT22;65428;53.194;6.132;2023-03-23T06:20:17;10.20;99.90
76567;DHT22;65428;53.194;6.132;2023-03-23T06:23:16;10.10;99.90
76567;DHT22;65428;53.194;6.132;2023-03-23T06:29:54;9.90;99.90
76567;DHT22;65428;53.194;6.132;2023-03-23T08:10:53;11.40;99.90
76567;DHT22;65428;53.194;6.132;2023-03-23T08:13:58;11.40;99.90
76567;DHT22;65428;53.194;6.132;2023-03-23T08:20:50;11.50;99.90
76567;DHT22;65428;53.194;6.132;2023-03-23T08:23:37;11.50;99.90
76567;DHT22;65428;53.194;6.132;2023-03-23T09:07:46;12.60;99.90
76567;DHT22;65428;53.194;6.132;2023-03-23T09:10:51;13.00;99.90
76567;DHT22;65428;53.194;6.132;2023-03-23T09:27:41;12.90;99.90
76567;DHT22;65428;53.194;6.132;2023-03-23T09:30:40;12.90;99.90
76567;DHT22;65428;53.194;6.132;2023-03-23T09:41:10;12.90;99.90
76567;DHT22;65428;53.194;6.132;2023-03-23T10:00:44;13.30;99.90
76567;DHT22;65428;53.194;6.132;2023-03-23T10:03:51;13.40;99.90
76567;DHT22;65428;53.194;6.132;2023-03-23T10:06:30;13.90;99.90
76567;DHT22;65428;53.194;6.132;2023-03-23T10:09:18;14.20;99.10
76567;DHT22;65428;53.194;6.132;2023-03-23T10:16:08;14.00;98.20
76567;DHT22;65428;53.194;6.132;2023-03-23T10:22:31;13.70;97.90
76567;DHT22;65428;53.194;6.132;2023-03-23T10:25:41;13.90;95.70
76567;DHT22;65428;53.194;6.132;2023-03-23T10:43:55;16.70;86.70
76567;DHT22;65428;53.194;6.132;2023-03-23T10:46:45;16.80;89.90
76567;DHT22;65428;53.194;6.132;2023-03-23T10:49:23;16.40;82.40
76567;DHT22;65428;53.194;6.132;2023-03-23T10:55:37;15.30;85.70
76567;DHT22;65428;53.194;6.132;2023-03-23T10:58:12;15.00;90.10
76567;DHT22;65428;53.194;6.132;2023-03-23T11:01:10;14.70;91.30
76567;DHT22;65428;53.194;6.132;2023-03-23T11:04:02;15.00;92.70
76567;DHT22;65428;53.194;6.132;2023-03-23T11:06:45;15.70;94.60
76567;DHT22;65428;53.194;6.132;2023-03-23T11:09:20;16.20;90.10
76567;DHT22;65428;53.194;6.132;2023-03-23T11:12:01;16.80;86.10
76567;DHT22;65428;53.194;6.132;2023-03-23T11:14:35;17.20;72.10
76567;DHT22;65428;53.194;6.132;2023-03-23T11:17:27;17.40;70.90
76567;DHT22;65428;53.194;6.132;2023-03-23T11:23:23;17.10;65.90
76567;DHT22;65428;53.194;6.132;2023-03-23T11:28:58;17.50;66.70
76567;DHT22;65428;53.194;6.132;2023-03-23T11:31:35;17.60;62.70
76567;DHT22;65428;53.194;6.132;2023-03-23T11:37:41;17.90;64.00
76567;DHT22;65428;53.194;6.132;2023-03-23T11:43:46;17.90;62.80
76567;DHT22;65428;53.194;6.132;2023-03-23T11:56:30;18.00;59.40
76567;DHT22;65428;53.194;6.132;2023-03-23T11:59:27;17.60;58.30
76567;DHT22;65428;53.194;6.132;2023-03-23T12:09:45;17.20;57.10
76567;DHT22;65428;53.194;6.132;2023-03-23T12:20:01;17.30;59.90
76567;DHT22;65428;53.194;6.132;2023-03-23T12:48:49;18.60;57.80
76567;DHT22;65428;53.194;6.132;2023-03-23T12:54:53;18.50;58.10
76567;DHT22;65428;53.194;6.132;2023-03-23T12:57:45;18.30;59.40
76567;DHT22;65428;53.194;6.132;2023-03-23T13:06:39;18.80;59.80
76567;DHT22;65428;53.194;6.132;2023-03-23T13:09:29;19.10;59.20
76567;DHT22;65428;53.194;6.132;2023-03-23T13:12:29;19.40;57.40
76567;DHT22;65428;53.194;6.132;2023-03-23T13:18:56;19.30;56.10
76567;DHT22;65428;53.194;6.132;2023-03-23T13:21:48;19.70;56.00
76567;DHT22;65428;53.194;6.132;2023-03-23T13:24:20;19.50;57.20
76567;DHT22;65428;53.194;6.132;2023-03-23T13:26:53;20.10;55.60
76567;DHT22;65428;53.194;6.132;2023-03-23T13:29:27;20.00;57.60
76567;DHT22;65428;53.194;6.132;2023-03-23T13:32:30;20.10;53.60
76567;DHT22;65428;53.194;6.132;2023-03-23T13:35:31;20.20;54.00
76567;DHT22;65428;53.194;6.132;2023-03-23T13:38:38;19.60;55.40
76567;DHT22;65428;53.194;6.132;2023-03-23T13:41:27;18.50;58.70
76567;DHT22;65428;53.194;6.132;2023-03-23T13:44:23;18.10;60.50
76567;DHT22;65428;53.194;6.132;2023-03-23T13:47:35;18.10;60.70
76567;DHT22;65428;53.194;6.132;2023-03-23T13:50:26;18.50;61.60
76567;DHT22;65428;53.194;6.132;2023-03-23T13:59:04;18.80;60.50
76567;DHT22;65428;53.194;6.132;2023-03-23T14:10:55;18.60;59.10
76567;DHT22;65428;53.194;6.132;2023-03-23T14:16:22;18.70;60.80
76567;DHT22;65428;53.194;6.132;2023-03-23T14:19:00;18.90;58.00
76567;DHT22;65428;53.194;6.132;2023-03-23T14:21:41;19.10;56.80
76567;DHT22;65428;53.194;6.132;2023-03-23T14:24:24;19.60;58.10
76567;DHT22;65428;53.194;6.132;2023-03-23T14:29:35;20.10;56.20
76567;DHT22;65428;53.194;6.132;2023-03-23T14:32:42;20.50;54.30
76567;DHT22;65428;53.194;6.132;2023-03-23T14:35:32;20.10;54.30
76567;DHT22;65428;53.194;6.132;2023-03-23T14:38:30;19.80;54.40
76567;DHT22;65428;53.194;6.132;2023-03-23T14:41:10;19.90;55.30
76567;DHT22;65428;53.194;6.132;2023-03-23T14:43:46;19.60;55.80
76567;DHT22;65428;53.194;6.132;2023-03-23T14:46:13;19.70;55.40
76567;DHT22;65428;53.194;6.132;2023-03-23T14:48:44;19.50;54.50
76567;DHT22;65428;53.194;6.132;2023-03-23T14:51:19;19.10;55.40
76567;DHT22;65428;53.194;6.132;2023-03-23T14:53:54;19.30;55.50
76567;DHT22;65428;53.194;6.132;2023-03-23T14:56:36;19.50;56.40
76567;DHT22;65428;53.194;6.132;2023-03-23T15:02:53;18.40;56.00
76567;DHT22;65428;53.194;6.132;2023-03-23T15:05:27;17.90;59.40
76567;DHT22;65428;53.194;6.132;2023-03-23T15:08:02;17.20;59.80
76567;DHT22;65428;53.194;6.132;2023-03-23T15:14:14;16.90;62.10
76567;DHT22;65428;53.194;6.132;2023-03-23T15:16:51;16.70;61.00
76567;DHT22;65428;53.194;6.132;2023-03-23T15:19:41;16.40;61.10
76567;DHT22;65428;53.194;6.132;2023-03-23T15:22:29;16.20;63.10
76567;DHT22;65428;53.194;6.132;2023-03-23T15:28:15;15.80;60.40
76567;DHT22;65428;53.194;6.132;2023-03-23T15:30:52;15.90;64.90
76567;DHT22;65428;53.194;6.132;2023-03-23T15:33:21;15.90;62.00
76567;DHT22;65428;53.194;6.132;2023-03-23T15:36:09;15.40;62.10
76567;DHT22;65428;53.194;6.132;2023-03-23T15:39:16;15.50;64.70
76567;DHT22;65428;53.194;6.132;2023-03-23T15:41:50;15.80;65.60
76567;DHT22;65428;53.194;6.132;2023-03-23T15:44:28;15.50;68.60
76567;DHT22;65428;53.194;6.132;2023-03-23T15:47:16;15.50;69.60
76567;DHT22;65428;53.194;6.132;2023-03-23T15:52:47;15.20;73.30
76567;DHT22;65428;53.194;6.132;2023-03-23T15:55:47;15.30;76.90
76567;DHT22;65428;53.194;6.132;2023-03-23T15:58:22;15.00;77.90
76567;DHT22;65428;53.194;6.132;2023-03-23T16:01:01;15.10;80.00
76567;DHT22;65428;53.194;6.132;2023-03-23T16:07:25;14.60;80.30
76567;DHT22;65428;53.194;6.132;2023-03-23T16:09:57;14.60;83.50
76567;DHT22;65428;53.194;6.132;2023-03-23T16:12:22;14.60;82.00
76567;DHT22;65428;53.194;6.132;2023-03-23T16:15:40;14.70;84.90
76567;DHT22;65428;53.194;6.132;2023-03-23T16:26:03;14.30;88.80
76567;DHT22;65428;53.194;6.132;2023-03-23T16:32:13;14.30;87.80
76567;DHT22;65428;53.194;6.132;2023-03-23T16:38:15;14.20;91.30
76567;DHT22;65428;53.194;6.132;2023-03-23T16:43:20;14.10;92.00
76567;DHT22;65428;53.194;6.132;2023-03-23T17:09:34;13.70;95.80
76567;DHT22;65428;53.194;6.132;2023-03-23T17:14:57;13.60;95.70
76567;DHT22;65428;53.194;6.132;2023-03-23T17:26:12;13.30;98.00
76567;DHT22;65428;53.194;6.132;2023-03-23T17:38:05;13.10;99.50
76567;DHT22;65428;53.194;6.132;2023-03-23T17:43:09;13.00;99.90
76567;DHT22;65428;53.194;6.132;2023-03-23T17:55:16;12.80;99.90
76567;DHT22;65428;53.194;6.132;2023-03-23T17:58:10;12.70;99.90
76567;DHT22;65428;53.194;6.132;2023-03-23T18:17:55;12.60;99.90
76567;DHT22;65428;53.194;6.132;2023-03-23T18:20:21;12.60;99.90
76567;DHT22;65428;53.194;6.132;2023-03-23T18:28:39;12.50;99.90
76567;DHT22;65428;53.194;6.132;2023-03-23T18:33:46;12.50;99.90
76567;DHT22;65428;53.194;6.132;2023-03-23T18:36:36;12.40;99.90
76567;DHT22;65428;53.194;6.132;2023-03-23T18:39:21;12.40;99.90
76567;DHT22;65428;53.194;6.132;2023-03-23T18:42:03;12.40;99.90
76567;DHT22;65428;53.194;6.132;2023-03-23T18:47:29;12.30;99.90
76567;DHT22;65428;53.194;6.132;2023-03-23T18:49:58;12.60;99.90
76567;DHT22;65428;53.194;6.132;2023-03-23T18:52:40;12.40;99.90
76567;DHT22;65428;53.194;6.132;2023-03-23T18:55:09;12.30;99.90
76567;DHT22;65428;53.194;6.132;2023-03-23T19:08:28;12.30;99.90
76567;DHT22;65428;53.194;6.132;2023-03-23T19:27:52;12.30;99.90
76567;DHT22;65428;53.194;6.132;2023-03-23T19:31:23;12.30;99.90
76567;DHT22;65428;53.194;6.132;2023-03-23T19:45:11;12.40;99.90
76567;DHT22;65428;53.194;6.132;2023-03-23T19:47:39;12.90;99.90
76567;DHT22;65428;53.194;6.132;2023-03-23T19:50:05;12.40;99.90
76567;DHT22;65428;53.194;6.132;2023-03-23T19:52:32;12.40;99.90
76567;DHT22;65428;53.194;6.132;2023-03-23T19:54:58;12.90;99.90
76567;DHT22;65428;53.194;6.132;2023-03-23T19:57:23;12.30;99.90
76567;DHT22;65428;53.194;6.132;2023-03-23T19:59:49;12.20;99.90
76567;DHT22;65428;53.194;6.132;2023-03-23T20:02:15;12.50;99.90
76567;DHT22;65428;53.194;6.132;2023-03-23T20:04:41;12.10;99.90
76567;DHT22;65428;53.194;6.132;2023-03-23T20:07:07;12.00;99.90
76567;DHT22;65428;53.194;6.132;2023-03-23T20:09:33;12.00;99.90
76567;DHT22;65428;53.194;6.132;2023-03-23T20:11:59;12.20;99.90
76567;DHT22;65428;53.194;6.132;2023-03-23T20:14:25;12.00;99.90
76567;DHT22;65428;53.194;6.132;2023-03-23T20:16:50;12.20;99.90
76567;DHT22;65428;53.194;6.132;2023-03-23T20:19:16;11.90;99.90
76567;DHT22;65428;53.194;6.132;2023-03-23T20:21:42;12.00;99.90
76567;DHT22;65428;53.194;6.132;2023-03-23T20:24:10;12.00;99.90
